Hlavní strana
METAR-TAF:

METAR-TAF

Letiště :

Centralia Municipal Airport

Centralia, Illinois, Spojené státy americké

zeměpisná šířka: 38-30-53N, zeměpisná délka: 089-05-32W, výška: 163 m

Aktuální stav počasí

Zpráva byla vytvořena před 15 minutami, v 06:35 UTC
Východojihovýchodní vítr 10 kt
Teplota 2°C
Vlhkost vzduchu 51%
Tlak 1019 hPa
Viditelnost: 16.1 km
Oblačno až skoro zataženo ve výšce 5000 ft
Zataženo ve výšce 7500 ft

METAR: KENL 240635Z AUTO 12010KT 10SM BKN050 OVC075 02/M07 A3010 RMK AO2 T00211068

Čas: 00:50 (06:50 UTC)


TAF: chybějící

Stav a předpovědi počasí z více než 4 000 letišť (zprávy METAR a TAF).

Červené a žluté tečky na mapě představují dostupné meteorologické stanice.

Když kurzor umístíte na tečku, zobrazí se název stanice.

Pak kliknutím zobrazíte stav a předpověď počasí.

Chcete-li změnit mapu, kliknutím na zelené tlačítko se znaménkem +mapu přiblížíte, kliknutím na zelené tlačítko se znaménkem – mapu oddálíte a kliknutím na zelené šipky přejdete na sousední mapy.


METAR-TAF: